sensor_id;sensor_type;location;lat;lon;timestamp;P1;durP1;ratioP1;P2;durP2;ratioP2
46455;SDS011;32154;47.160;8.120;2022-09-03T00:12:56;5.05;;;3.08;;
46455;SDS011;32154;47.160;8.120;2022-09-03T00:18:10;6.75;;;3.13;;
46455;SDS011;32154;47.160;8.120;2022-09-03T00:23:21;4.20;;;1.58;;
46455;SDS011;32154;47.160;8.120;2022-09-03T00:28:27;3.67;;;2.20;;
46455;SDS011;32154;47.160;8.120;2022-09-03T00:33:36;1.95;;;1.60;;
46455;SDS011;32154;47.160;8.120;2022-09-03T00:38:40;3.17;;;2.08;;
46455;SDS011;32154;47.160;8.120;2022-09-03T00:59:25;2.50;;;1.73;;
46455;SDS011;32154;47.160;8.120;2022-09-03T01:05:02;1.42;;;1.00;;
46455;SDS011;32154;47.160;8.120;2022-09-03T01:10:51;2.00;;;1.15;;
46455;SDS011;32154;47.160;8.120;2022-09-03T01:16:03;2.22;;;1.20;;
46455;SDS011;32154;47.160;8.120;2022-09-03T01:27:02;2.47;;;1.80;;
46455;SDS011;32154;47.160;8.120;2022-09-03T01:32:19;2.40;;;1.10;;
46455;SDS011;32154;47.160;8.120;2022-09-03T01:43:42;1.42;;;0.93;;
46455;SDS011;32154;47.160;8.120;2022-09-03T01:49:15;1.80;;;0.90;;
46455;SDS011;32154;47.160;8.120;2022-09-03T02:00:29;1.80;;;0.80;;
46455;SDS011;32154;47.160;8.120;2022-09-03T02:05:26;1.90;;;0.95;;
46455;SDS011;32154;47.160;8.120;2022-09-03T02:15:44;3.20;;;1.10;;
46455;SDS011;32154;47.160;8.120;2022-09-03T02:20:48;3.22;;;1.40;;
46455;SDS011;32154;47.160;8.120;2022-09-03T02:25:56;1.33;;;0.90;;
46455;SDS011;32154;47.160;8.120;2022-09-03T02:31:03;1.13;;;0.95;;
46455;SDS011;32154;47.160;8.120;2022-09-03T02:36:07;1.60;;;0.90;;
46455;SDS011;32154;47.160;8.120;2022-09-03T02:41:36;2.00;;;1.13;;
46455;SDS011;32154;47.160;8.120;2022-09-03T02:46:43;1.55;;;0.90;;
46455;SDS011;32154;47.160;8.120;2022-09-03T02:51:49;1.92;;;1.02;;
46455;SDS011;32154;47.160;8.120;2022-09-03T02:57:12;2.60;;;1.15;;
46455;SDS011;32154;47.160;8.120;2022-09-03T03:02:23;2.42;;;1.52;;
46455;SDS011;32154;47.160;8.120;2022-09-03T03:07:27;1.60;;;1.15;;
46455;SDS011;32154;47.160;8.120;2022-09-03T03:12:33;2.25;;;1.65;;
46455;SDS011;32154;47.160;8.120;2022-09-03T03:17:36;1.88;;;1.40;;
46455;SDS011;32154;47.160;8.120;2022-09-03T03:22:39;6.25;;;1.60;;
46455;SDS011;32154;47.160;8.120;2022-09-03T03:27:41;2.53;;;1.60;;
46455;SDS011;32154;47.160;8.120;2022-09-03T03:32:44;2.83;;;1.70;;
46455;SDS011;32154;47.160;8.120;2022-09-03T03:37:47;2.13;;;1.20;;
46455;SDS011;32154;47.160;8.120;2022-09-03T03:42:50;3.13;;;1.67;;
46455;SDS011;32154;47.160;8.120;2022-09-03T03:47:55;2.83;;;1.65;;
46455;SDS011;32154;47.160;8.120;2022-09-03T03:52:59;2.88;;;1.90;;
46455;SDS011;32154;47.160;8.120;2022-09-03T03:58:02;2.63;;;1.95;;
46455;SDS011;32154;47.160;8.120;2022-09-03T04:03:04;2.33;;;1.65;;
46455;SDS011;32154;47.160;8.120;2022-09-03T04:08:08;1.98;;;1.35;;
46455;SDS011;32154;47.160;8.120;2022-09-03T04:13:10;2.10;;;1.33;;
46455;SDS011;32154;47.160;8.120;2022-09-03T04:18:13;3.22;;;1.40;;
46455;SDS011;32154;47.160;8.120;2022-09-03T04:23:16;1.52;;;1.10;;
46455;SDS011;32154;47.160;8.120;2022-09-03T04:28:18;2.72;;;1.40;;
46455;SDS011;32154;47.160;8.120;2022-09-03T04:33:23;2.97;;;1.92;;
46455;SDS011;32154;47.160;8.120;2022-09-03T04:38:45;2.05;;;1.40;;
46455;SDS011;32154;47.160;8.120;2022-09-03T04:44:07;2.08;;;1.42;;
46455;SDS011;32154;47.160;8.120;2022-09-03T04:49:10;3.10;;;1.55;;
46455;SDS011;32154;47.160;8.120;2022-09-03T04:54:12;2.28;;;1.58;;
46455;SDS011;32154;47.160;8.120;2022-09-03T04:59:14;5.65;;;2.40;;
46455;SDS011;32154;47.160;8.120;2022-09-03T05:04:35;2.40;;;1.38;;
46455;SDS011;32154;47.160;8.120;2022-09-03T05:09:38;2.08;;;1.42;;
46455;SDS011;32154;47.160;8.120;2022-09-03T05:14:41;1.48;;;1.00;;
46455;SDS011;32154;47.160;8.120;2022-09-03T05:19:43;2.38;;;1.45;;
46455;SDS011;32154;47.160;8.120;2022-09-03T05:24:46;3.08;;;1.58;;
46455;SDS011;32154;47.160;8.120;2022-09-03T05:29:49;5.63;;;1.98;;
46455;SDS011;32154;47.160;8.120;2022-09-03T05:34:52;2.42;;;1.70;;
46455;SDS011;32154;47.160;8.120;2022-09-03T05:39:54;2.03;;;1.48;;
46455;SDS011;32154;47.160;8.120;2022-09-03T05:44:57;3.42;;;1.55;;
46455;SDS011;32154;47.160;8.120;2022-09-03T05:49:59;1.45;;;1.30;;
46455;SDS011;32154;47.160;8.120;2022-09-03T05:55:04;2.17;;;1.75;;
46455;SDS011;32154;47.160;8.120;2022-09-03T06:00:06;2.25;;;1.80;;
46455;SDS011;32154;47.160;8.120;2022-09-03T06:05:28;2.90;;;1.25;;
46455;SDS011;32154;47.160;8.120;2022-09-03T06:10:32;2.22;;;1.33;;
46455;SDS011;32154;47.160;8.120;2022-09-03T06:15:42;2.33;;;1.20;;
46455;SDS011;32154;47.160;8.120;2022-09-03T06:20:52;2.38;;;1.38;;
46455;SDS011;32154;47.160;8.120;2022-09-03T06:25:59;1.95;;;1.25;;
46455;SDS011;32154;47.160;8.120;2022-09-03T06:31:06;1.80;;;1.05;;
46455;SDS011;32154;47.160;8.120;2022-09-03T06:36:13;2.65;;;1.60;;
46455;SDS011;32154;47.160;8.120;2022-09-03T06:41:18;2.78;;;1.30;;
46455;SDS011;32154;47.160;8.120;2022-09-03T06:46:22;2.00;;;1.42;;
46455;SDS011;32154;47.160;8.120;2022-09-03T06:51:26;2.08;;;1.27;;
46455;SDS011;32154;47.160;8.120;2022-09-03T06:56:29;1.50;;;1.20;;
46455;SDS011;32154;47.160;8.120;2022-09-03T07:01:38;2.50;;;1.23;;
46455;SDS011;32154;47.160;8.120;2022-09-03T07:11:49;3.15;;;1.45;;
46455;SDS011;32154;47.160;8.120;2022-09-03T07:16:51;3.13;;;1.60;;
46455;SDS011;32154;47.160;8.120;2022-09-03T07:21:54;2.33;;;1.15;;
46455;SDS011;32154;47.160;8.120;2022-09-03T07:26:59;2.58;;;1.70;;
46455;SDS011;32154;47.160;8.120;2022-09-03T07:32:01;1.70;;;1.40;;
46455;SDS011;32154;47.160;8.120;2022-09-03T07:37:08;2.50;;;1.60;;
46455;SDS011;32154;47.160;8.120;2022-09-03T07:42:11;2.33;;;1.42;;
46455;SDS011;32154;47.160;8.120;2022-09-03T07:47:14;2.20;;;1.35;;
46455;SDS011;32154;47.160;8.120;2022-09-03T07:52:28;1.67;;;1.20;;
46455;SDS011;32154;47.160;8.120;2022-09-03T07:57:55;1.77;;;1.13;;
46455;SDS011;32154;47.160;8.120;2022-09-03T08:03:00;2.30;;;1.20;;
46455;SDS011;32154;47.160;8.120;2022-09-03T08:08:04;11.05;;;1.80;;
46455;SDS011;32154;47.160;8.120;2022-09-03T08:13:07;2.50;;;1.85;;
46455;SDS011;32154;47.160;8.120;2022-09-03T08:18:10;2.47;;;1.63;;
46455;SDS011;32154;47.160;8.120;2022-09-03T08:23:13;1.65;;;1.45;;
46455;SDS011;32154;47.160;8.120;2022-09-03T08:28:17;3.58;;;1.52;;
46455;SDS011;32154;47.160;8.120;2022-09-03T08:33:20;2.00;;;1.40;;
46455;SDS011;32154;47.160;8.120;2022-09-03T08:38:30;3.28;;;1.50;;
46455;SDS011;32154;47.160;8.120;2022-09-03T08:43:34;1.83;;;1.30;;
46455;SDS011;32154;47.160;8.120;2022-09-03T08:55:58;2.15;;;1.27;;
46455;SDS011;32154;47.160;8.120;2022-09-03T09:00:51;2.05;;;1.23;;
46455;SDS011;32154;47.160;8.120;2022-09-03T09:12:07;1.77;;;1.13;;
46455;SDS011;32154;47.160;8.120;2022-09-03T09:23:17;2.28;;;1.25;;
46455;SDS011;32154;47.160;8.120;2022-09-03T09:28:21;1.90;;;1.40;;
46455;SDS011;32154;47.160;8.120;2022-09-03T09:33:31;1.33;;;0.97;;
46455;SDS011;32154;47.160;8.120;2022-09-03T09:38:38;1.95;;;1.17;;
46455;SDS011;32154;47.160;8.120;2022-09-03T09:43:41;1.95;;;1.23;;
46455;SDS011;32154;47.160;8.120;2022-09-03T09:49:06;3.83;;;1.20;;
46455;SDS011;32154;47.160;8.120;2022-09-03T09:54:25;2.03;;;0.90;;
46455;SDS011;32154;47.160;8.120;2022-09-03T09:59:46;1.58;;;0.90;;
46455;SDS011;32154;47.160;8.120;2022-09-03T10:05:11;1.50;;;0.98;;
46455;SDS011;32154;47.160;8.120;2022-09-03T10:10:33;1.83;;;1.40;;
46455;SDS011;32154;47.160;8.120;2022-09-03T10:21:35;1.45;;;0.90;;
46455;SDS011;32154;47.160;8.120;2022-09-03T10:26:44;1.70;;;1.00;;
46455;SDS011;32154;47.160;8.120;2022-09-03T10:53:10;2.25;;;0.95;;
46455;SDS011;32154;47.160;8.120;2022-09-03T11:09:16;0.45;;;0.45;;
46455;SDS011;32154;47.160;8.120;2022-09-03T11:14:39;0.85;;;0.68;;
46455;SDS011;32154;47.160;8.120;2022-09-03T11:19:47;1.30;;;0.80;;
46455;SDS011;32154;47.160;8.120;2022-09-03T11:24:59;0.98;;;0.65;;
46455;SDS011;32154;47.160;8.120;2022-09-03T11:30:07;1.33;;;0.80;;
46455;SDS011;32154;47.160;8.120;2022-09-03T11:35:24;0.93;;;0.47;;
46455;SDS011;32154;47.160;8.120;2022-09-03T11:40:56;0.60;;;0.32;;
46455;SDS011;32154;47.160;8.120;2022-09-03T11:46:33;1.00;;;0.60;;
46455;SDS011;32154;47.160;8.120;2022-09-03T11:51:58;0.93;;;0.50;;
46455;SDS011;32154;47.160;8.120;2022-09-03T12:02:29;1.23;;;0.60;;
46455;SDS011;32154;47.160;8.120;2022-09-03T12:19:02;1.02;;;0.68;;
46455;SDS011;32154;47.160;8.120;2022-09-03T12:24:13;0.70;;;0.60;;
46455;SDS011;32154;47.160;8.120;2022-09-03T12:29:34;0.77;;;0.20;;
46455;SDS011;32154;47.160;8.120;2022-09-03T12:34:36;1.95;;;0.50;;
46455;SDS011;32154;47.160;8.120;2022-09-03T12:39:39;1.15;;;0.50;;
46455;SDS011;32154;47.160;8.120;2022-09-03T12:45:10;0.82;;;0.35;;
46455;SDS011;32154;47.160;8.120;2022-09-03T12:50:14;3.53;;;0.50;;
46455;SDS011;32154;47.160;8.120;2022-09-03T13:00:36;0.60;;;0.45;;
46455;SDS011;32154;47.160;8.120;2022-09-03T13:05:44;0.75;;;0.55;;
46455;SDS011;32154;47.160;8.120;2022-09-03T13:10:57;0.70;;;0.47;;
46455;SDS011;32154;47.160;8.120;2022-09-03T13:16:31;1.20;;;0.63;;
46455;SDS011;32154;47.160;8.120;2022-09-03T13:21:45;0.82;;;0.60;;
46455;SDS011;32154;47.160;8.120;2022-09-03T13:26:53;0.82;;;0.45;;
46455;SDS011;32154;47.160;8.120;2022-09-03T13:37:42;1.00;;;0.70;;
46455;SDS011;32154;47.160;8.120;2022-09-03T13:43:04;0.80;;;0.50;;
46455;SDS011;32154;47.160;8.120;2022-09-03T13:48:19;2.47;;;0.60;;
46455;SDS011;32154;47.160;8.120;2022-09-03T13:53:41;1.20;;;0.60;;
46455;SDS011;32154;47.160;8.120;2022-09-03T14:04:39;1.40;;;1.27;;
46455;SDS011;32154;47.160;8.120;2022-09-03T14:21:46;1.00;;;0.90;;
46455;SDS011;32154;47.160;8.120;2022-09-03T14:27:21;1.10;;;0.77;;
46455;SDS011;32154;47.160;8.120;2022-09-03T14:33:00;1.20;;;0.55;;
46455;SDS011;32154;47.160;8.120;2022-09-03T14:49:03;0.95;;;0.70;;
46455;SDS011;32154;47.160;8.120;2022-09-03T14:59:44;2.10;;;1.15;;
46455;SDS011;32154;47.160;8.120;2022-09-03T15:10:58;1.33;;;0.98;;
46455;SDS011;32154;47.160;8.120;2022-09-03T15:16:35;1.55;;;0.93;;
46455;SDS011;32154;47.160;8.120;2022-09-03T15:22:20;1.13;;;0.80;;
46455;SDS011;32154;47.160;8.120;2022-09-03T15:38:06;1.17;;;0.88;;
46455;SDS011;32154;47.160;8.120;2022-09-03T15:43:32;2.50;;;1.10;;
46455;SDS011;32154;47.160;8.120;2022-09-03T15:54:29;0.73;;;0.63;;
46455;SDS011;32154;47.160;8.120;2022-09-03T16:16:01;1.50;;;0.90;;
46455;SDS011;32154;47.160;8.120;2022-09-03T16:26:53;1.45;;;1.00;;
46455;SDS011;32154;47.160;8.120;2022-09-03T16:49:17;2.78;;;1.33;;
46455;SDS011;32154;47.160;8.120;2022-09-03T16:54:34;1.75;;;0.80;;
46455;SDS011;32154;47.160;8.120;2022-09-03T17:00:16;2.22;;;1.25;;
46455;SDS011;32154;47.160;8.120;2022-09-03T17:11:07;3.08;;;0.77;;
46455;SDS011;32154;47.160;8.120;2022-09-03T17:27:30;2.00;;;0.95;;
46455;SDS011;32154;47.160;8.120;2022-09-03T17:38:41;1.10;;;0.68;;
46455;SDS011;32154;47.160;8.120;2022-09-03T17:43:48;1.48;;;0.95;;
46455;SDS011;32154;47.160;8.120;2022-09-03T17:49:26;1.53;;;1.00;;
46455;SDS011;32154;47.160;8.120;2022-09-03T17:54:53;2.03;;;1.10;;
46455;SDS011;32154;47.160;8.120;2022-09-03T18:00:02;1.40;;;0.88;;
46455;SDS011;32154;47.160;8.120;2022-09-03T18:21:38;1.70;;;0.98;;
46455;SDS011;32154;47.160;8.120;2022-09-03T18:26:42;1.05;;;0.77;;
46455;SDS011;32154;47.160;8.120;2022-09-03T18:32:07;1.40;;;1.10;;
46455;SDS011;32154;47.160;8.120;2022-09-03T18:37:28;1.38;;;0.90;;
46455;SDS011;32154;47.160;8.120;2022-09-03T18:48:26;1.83;;;1.38;;
46455;SDS011;32154;47.160;8.120;2022-09-03T19:09:57;2.88;;;1.17;;
46455;SDS011;32154;47.160;8.120;2022-09-03T19:15:25;2.08;;;1.00;;
46455;SDS011;32154;47.160;8.120;2022-09-03T19:32:03;2.55;;;1.30;;
46455;SDS011;32154;47.160;8.120;2022-09-03T19:37:19;1.73;;;1.05;;
46455;SDS011;32154;47.160;8.120;2022-09-03T19:47:49;3.50;;;1.50;;
46455;SDS011;32154;47.160;8.120;2022-09-03T19:53:23;1.70;;;1.00;;
46455;SDS011;32154;47.160;8.120;2022-09-03T19:58:49;1.50;;;0.98;;
46455;SDS011;32154;47.160;8.120;2022-09-03T20:04:02;1.98;;;1.05;;
46455;SDS011;32154;47.160;8.120;2022-09-03T20:09:33;2.20;;;1.30;;
46455;SDS011;32154;47.160;8.120;2022-09-03T20:15:01;1.40;;;0.93;;
46455;SDS011;32154;47.160;8.120;2022-09-03T20:20:40;2.35;;;1.40;;
46455;SDS011;32154;47.160;8.120;2022-09-03T20:31:22;2.95;;;1.58;;
46455;SDS011;32154;47.160;8.120;2022-09-03T20:37:06;3.33;;;1.25;;
46455;SDS011;32154;47.160;8.120;2022-09-03T20:48:07;2.20;;;1.10;;
46455;SDS011;32154;47.160;8.120;2022-09-03T21:04:38;2.25;;;0.95;;
46455;SDS011;32154;47.160;8.120;2022-09-03T21:10:04;2.08;;;1.00;;
46455;SDS011;32154;47.160;8.120;2022-09-03T21:21:34;2.10;;;1.23;;
46455;SDS011;32154;47.160;8.120;2022-09-03T21:27:11;2.38;;;1.00;;
46455;SDS011;32154;47.160;8.120;2022-09-03T21:32:19;2.55;;;1.48;;
46455;SDS011;32154;47.160;8.120;2022-09-03T21:37:25;2.35;;;1.27;;
46455;SDS011;32154;47.160;8.120;2022-09-03T21:48:02;1.65;;;1.10;;
46455;SDS011;32154;47.160;8.120;2022-09-03T21:53:30;2.63;;;1.40;;
46455;SDS011;32154;47.160;8.120;2022-09-03T22:04:26;2.17;;;1.35;;
46455;SDS011;32154;47.160;8.120;2022-09-03T22:14:55;2.90;;;1.35;;
46455;SDS011;32154;47.160;8.120;2022-09-03T22:19:57;3.08;;;1.60;;
46455;SDS011;32154;47.160;8.120;2022-09-03T22:25:22;2.60;;;1.77;;
46455;SDS011;32154;47.160;8.120;2022-09-03T22:31:12;2.58;;;1.65;;
46455;SDS011;32154;47.160;8.120;2022-09-03T22:36:44;2.50;;;1.58;;
46455;SDS011;32154;47.160;8.120;2022-09-03T22:42:07;3.13;;;1.70;;
46455;SDS011;32154;47.160;8.120;2022-09-03T22:47:33;2.50;;;1.83;;
46455;SDS011;32154;47.160;8.120;2022-09-03T22:58:26;2.63;;;1.73;;
46455;SDS011;32154;47.160;8.120;2022-09-03T23:03:38;2.13;;;1.65;;
46455;SDS011;32154;47.160;8.120;2022-09-03T23:08:47;2.70;;;1.90;;
46455;SDS011;32154;47.160;8.120;2022-09-03T23:14:04;3.40;;;1.85;;
46455;SDS011;32154;47.160;8.120;2022-09-03T23:19:11;2.42;;;1.40;;
46455;SDS011;32154;47.160;8.120;2022-09-03T23:24:20;3.28;;;2.10;;
46455;SDS011;32154;47.160;8.120;2022-09-03T23:34:41;4.45;;;1.85;;
46455;SDS011;32154;47.160;8.120;2022-09-03T23:50:47;1.92;;;1.23;;
